createdAt,value
2023-06-11T00:00:22.433Z,79.90
2023-06-11T00:02:55.293Z,79.70
2023-06-11T00:05:23.968Z,80.10
2023-06-11T00:07:52.261Z,80.20
2023-06-11T00:10:20.398Z,81.00
2023-06-11T00:12:48.421Z,80.70
2023-06-11T00:15:20.040Z,80.90
2023-06-11T00:17:50.009Z,81.00
2023-06-11T00:20:18.000Z,81.00
2023-06-11T00:22:46.229Z,82.10
2023-06-11T00:25:16.688Z,82.30
2023-06-11T00:27:45.060Z,82.40
2023-06-11T00:30:14.428Z,82.60
2023-06-11T00:32:42.662Z,82.80
2023-06-11T00:35:12.601Z,83.20
2023-06-11T00:37:40.778Z,84.20
2023-06-11T00:40:12.173Z,84.10
2023-06-11T00:42:48.094Z,84.90
2023-06-11T00:45:16.231Z,84.20
2023-06-11T00:47:44.568Z,84.80
2023-06-11T00:50:16.490Z,85.20
2023-06-11T00:52:44.768Z,85.70
2023-06-11T00:55:13.304Z,85.40
2023-06-11T00:57:42.445Z,86.30
2023-06-11T01:00:13.705Z,86.20
2023-06-11T01:02:46.083Z,86.20
2023-06-11T01:05:19.422Z,87.10
2023-06-11T01:07:52.392Z,87.40
2023-06-11T01:10:21.323Z,87.60
2023-06-11T01:12:49.921Z,87.50
2023-06-11T01:15:18.575Z,88.70
2023-06-11T01:17:53.943Z,89.00
2023-06-11T01:20:35.862Z,89.60
2023-06-11T01:23:18.834Z,90.30
2023-06-11T01:25:57.256Z,90.40
2023-06-11T01:28:32.115Z,91.10
2023-06-11T01:31:05.511Z,90.90
2023-06-11T01:33:36.969Z,91.60
2023-06-11T01:36:06.710Z,91.40
2023-06-11T01:38:42.794Z,91.50
2023-06-11T01:41:12.618Z,91.90
2023-06-11T01:43:42.495Z,91.80
2023-06-11T01:46:10.548Z,91.90
2023-06-11T01:48:38.570Z,92.10
2023-06-11T01:51:08.126Z,92.50
2023-06-11T01:53:36.358Z,92.60
2023-06-11T01:56:19.470Z,92.80
2023-06-11T01:58:49.059Z,93.10
2023-06-11T02:01:17.068Z,93.70
2023-06-11T02:03:45.545Z,94.00
2023-06-11T02:06:14.206Z,94.40
2023-06-11T02:08:42.221Z,94.10
2023-06-11T02:11:11.667Z,94.50
2023-06-11T02:13:39.605Z,94.90
2023-06-11T02:16:09.417Z,94.80
2023-06-11T02:18:37.556Z,94.90
2023-06-11T02:21:05.654Z,95.30
2023-06-11T02:23:33.897Z,95.20
2023-06-11T02:26:01.822Z,95.30
2023-06-11T02:28:32.503Z,95.30
2023-06-11T02:31:00.625Z,95.10
2023-06-11T02:33:29.953Z,95.40
2023-06-11T02:35:58.411Z,96.20
2023-06-11T02:38:26.379Z,95.90
2023-06-11T02:40:54.405Z,96.10
2023-06-11T02:43:22.353Z,95.80
2023-06-11T02:45:50.347Z,95.70
2023-06-11T02:48:18.391Z,96.00
2023-06-11T02:50:49.596Z,96.10
2023-06-11T02:53:17.594Z,95.70
2023-06-11T02:55:45.670Z,95.80
2023-06-11T02:58:13.631Z,96.60
2023-06-11T03:00:41.597Z,96.20
2023-06-11T03:03:09.923Z,96.40
2023-06-11T03:05:37.968Z,96.40
2023-06-11T03:08:07.424Z,96.30
2023-06-11T03:10:35.426Z,96.30
2023-06-11T03:13:03.857Z,96.80
2023-06-11T03:15:32.017Z,96.60
2023-06-11T03:18:00.165Z,96.80
2023-06-11T03:20:28.214Z,96.60
2023-06-11T03:22:56.146Z,96.70
2023-06-11T03:25:25.432Z,96.60
2023-06-11T03:27:53.489Z,96.80
2023-06-11T03:30:21.452Z,96.70
2023-06-11T03:32:49.454Z,96.70
2023-06-11T03:35:18.263Z,96.90
2023-06-11T03:37:46.519Z,97.30
2023-06-11T03:40:14.814Z,97.40
2023-06-11T03:42:44.252Z,97.50
2023-06-11T03:45:12.755Z,97.60
2023-06-11T03:47:41.145Z,98.00
2023-06-11T03:50:10.113Z,98.00
2023-06-11T03:52:41.987Z,98.00
2023-06-11T03:55:11.273Z,98.00
2023-06-11T03:57:39.449Z,98.10
2023-06-11T04:00:39.023Z,98.00
2023-06-11T04:03:07.227Z,98.50
2023-06-11T04:05:44.316Z,98.80
2023-06-11T04:08:12.289Z,98.70
2023-06-11T04:10:40.540Z,98.80
2023-06-11T04:13:08.567Z,98.90
2023-06-11T04:15:37.948Z,98.80
2023-06-11T04:18:06.463Z,98.50
2023-06-11T04:20:37.595Z,98.50
2023-06-11T04:23:05.615Z,98.90
2023-06-11T04:25:34.945Z,99.20
2023-06-11T04:28:02.864Z,99.00
2023-06-11T04:30:32.662Z,98.80
2023-06-11T04:33:05.752Z,98.80
2023-06-11T04:35:35.782Z,98.80
2023-06-11T04:38:13.297Z,98.90
2023-06-11T04:40:41.430Z,98.80
2023-06-11T04:43:09.354Z,98.80
2023-06-11T04:45:46.914Z,98.70
2023-06-11T04:48:22.823Z,98.50
2023-06-11T04:50:52.233Z,98.40
2023-06-11T04:53:26.496Z,99.20
2023-06-11T04:55:56.781Z,99.00
2023-06-11T04:58:25.139Z,98.60
2023-06-11T05:00:58.081Z,98.30
2023-06-11T05:03:35.474Z,98.00
2023-06-11T05:06:03.435Z,98.20
2023-06-11T05:08:31.484Z,98.30
2023-06-11T05:10:59.580Z,98.30
2023-06-11T05:13:27.817Z,98.40
2023-06-11T05:15:56.614Z,98.50
2023-06-11T05:18:26.373Z,98.20
2023-06-11T05:20:56.131Z,97.90
2023-06-11T05:23:29.673Z,97.50
2023-06-11T05:26:02.229Z,97.50
2023-06-11T05:28:30.414Z,97.30
2023-06-11T05:31:00.575Z,98.00
2023-06-11T05:33:29.486Z,97.40
2023-06-11T05:35:59.142Z,97.70
2023-06-11T05:38:27.113Z,97.20
2023-06-11T05:40:55.909Z,97.40
2023-06-11T05:43:24.408Z,97.40
2023-06-11T05:45:52.725Z,96.80
2023-06-11T05:48:20.912Z,96.90
2023-06-11T05:50:49.112Z,96.70
2023-06-11T05:53:18.409Z,97.00
2023-06-11T05:55:46.384Z,97.00
2023-06-11T05:58:14.442Z,96.90
2023-06-11T06:00:43.871Z,96.60
2023-06-11T06:03:12.058Z,96.70
2023-06-11T06:05:40.190Z,96.80
2023-06-11T06:08:08.192Z,96.10
2023-06-11T06:10:39.067Z,96.70
2023-06-11T06:13:07.085Z,96.70
2023-06-11T06:15:35.158Z,96.50
2023-06-11T06:18:05.455Z,96.70
2023-06-11T06:20:33.466Z,96.50
2023-06-11T06:23:01.499Z,96.30
2023-06-11T06:25:29.436Z,95.60
2023-06-11T06:27:58.845Z,96.10
2023-06-11T06:30:31.998Z,96.00
2023-06-11T06:33:00.038Z,95.70
2023-06-11T06:35:28.239Z,95.30
2023-06-11T06:37:56.585Z,95.60
2023-06-11T06:40:25.124Z,95.00
2023-06-11T06:42:53.604Z,95.50
2023-06-11T06:45:22.999Z,95.40
2023-06-11T06:47:51.176Z,95.10
2023-06-11T06:50:19.233Z,94.80
2023-06-11T06:52:47.231Z,95.30
2023-06-11T06:55:15.282Z,95.30
2023-06-11T06:57:43.265Z,95.10
2023-06-11T07:00:12.623Z,94.90
2023-06-11T07:02:42.379Z,95.20
2023-06-11T07:05:11.395Z,95.30
2023-06-11T07:07:41.704Z,95.30
2023-06-11T07:10:12.358Z,95.20
2023-06-11T07:12:40.721Z,95.00
2023-06-11T07:15:09.948Z,95.10
2023-06-11T07:17:38.068Z,95.00
2023-06-11T07:20:09.697Z,94.70
2023-06-11T07:22:38.570Z,95.10
2023-06-11T07:25:07.949Z,94.80
2023-06-11T07:27:36.042Z,94.10
2023-06-11T07:30:04.392Z,94.50
2023-06-11T07:32:32.558Z,95.00
2023-06-11T07:35:00.634Z,94.20
2023-06-11T07:37:29.963Z,93.90
2023-06-11T07:39:57.918Z,93.30
2023-06-11T07:42:25.888Z,93.50
2023-06-11T07:44:53.891Z,93.40
2023-06-11T07:47:22.019Z,93.80
2023-06-11T07:49:53.018Z,93.50
2023-06-11T07:52:21.899Z,93.90
2023-06-11T07:54:54.332Z,92.60
2023-06-11T07:57:22.335Z,92.70
2023-06-11T07:59:50.382Z,91.90
2023-06-11T08:02:18.867Z,91.90
2023-06-11T08:04:46.997Z,91.70
2023-06-11T08:07:15.159Z,92.20
2023-06-11T08:09:43.178Z,91.60
2023-06-11T08:12:13.834Z,91.20
2023-06-11T08:14:41.810Z,91.80
2023-06-11T08:17:10.362Z,91.10
2023-06-11T08:19:38.537Z,91.30
2023-06-11T08:22:07.157Z,91.20
2023-06-11T08:24:35.364Z,91.10
2023-06-11T08:27:04.012Z,91.10
2023-06-11T08:29:33.522Z,91.00
2023-06-11T08:32:01.712Z,90.40
2023-06-11T08:34:29.770Z,90.00
2023-06-11T08:36:58.286Z,88.80
2023-06-11T08:39:26.769Z,89.30
2023-06-11T08:41:55.322Z,88.50
2023-06-11T08:44:26.978Z,88.00
2023-06-11T08:46:58.093Z,88.00
2023-06-11T08:49:26.264Z,87.70
2023-06-11T08:51:57.143Z,87.00
2023-06-11T08:54:26.498Z,84.60
2023-06-11T08:56:55.094Z,86.50
2023-06-11T08:59:23.150Z,84.20
2023-06-11T09:01:53.312Z,81.70
2023-06-11T09:04:23.045Z,82.90
2023-06-11T09:06:52.560Z,84.20
2023-06-11T09:09:20.706Z,81.70
2023-06-11T09:11:49.113Z,82.50
2023-06-11T09:14:17.216Z,81.50
2023-06-11T09:19:14.677Z,79.10
2023-06-11T09:21:51.631Z,77.40
2023-06-11T09:24:23.018Z,77.10
2023-06-11T09:26:53.067Z,76.70
2023-06-11T09:29:21.156Z,74.30
2023-06-11T09:31:49.309Z,72.50
2023-06-11T09:34:23.281Z,72.80
2023-06-11T09:36:53.011Z,70.00
2023-06-11T09:39:23.585Z,71.50
2023-06-11T09:41:54.189Z,68.10
2023-06-11T09:44:22.880Z,68.20
2023-06-11T09:46:51.645Z,68.20
2023-06-11T09:49:19.789Z,66.90
2023-06-11T09:51:48.272Z,67.10
2023-06-11T09:54:19.385Z,66.20
2023-06-11T09:56:52.004Z,66.20
2023-06-11T09:59:21.181Z,66.10
2023-06-11T10:01:49.672Z,65.70
2023-06-11T10:04:21.081Z,65.00
2023-06-11T10:06:52.262Z,63.80
2023-06-11T10:09:22.617Z,63.40
2023-06-11T10:11:50.663Z,65.30
2023-06-11T10:14:18.779Z,65.90
2023-06-11T10:16:51.706Z,65.70
2023-06-11T10:19:20.584Z,63.40
2023-06-11T10:21:51.487Z,62.30
2023-06-11T10:24:25.454Z,62.20
2023-06-11T10:27:08.520Z,64.80
2023-06-11T10:29:41.064Z,66.30
2023-06-11T10:32:21.737Z,63.50
2023-06-11T10:34:54.809Z,62.50
2023-06-11T10:37:29.333Z,62.80
2023-06-11T10:39:58.732Z,63.40
2023-06-11T10:42:28.702Z,62.90
2023-06-11T10:45:00.060Z,62.30
2023-06-11T10:47:31.682Z,63.40
2023-06-11T10:50:10.870Z,59.60
2023-06-11T10:52:52.645Z,60.50
2023-06-11T10:55:22.995Z,60.90
2023-06-11T10:57:53.263Z,60.70
2023-06-11T11:00:21.882Z,61.10
2023-06-11T11:02:50.877Z,61.90
2023-06-11T11:05:19.250Z,61.20
2023-06-11T11:07:47.371Z,58.80
2023-06-11T11:10:20.241Z,58.30
2023-06-11T11:12:50.322Z,59.40
2023-06-11T11:15:18.854Z,57.60
2023-06-11T11:17:47.612Z,55.90
2023-06-11T11:20:18.475Z,55.70
2023-06-11T11:22:52.951Z,55.50
2023-06-11T11:25:26.606Z,56.00
2023-06-11T11:27:56.559Z,53.20
2023-06-11T11:30:26.019Z,54.20
2023-06-11T11:32:54.559Z,54.50
2023-06-11T11:35:23.674Z,53.90
2023-06-11T11:37:52.281Z,51.80
2023-06-11T11:40:24.094Z,51.70
2023-06-11T11:42:57.773Z,51.70
2023-06-11T11:45:33.201Z,51.50
2023-06-11T11:48:05.599Z,50.70
2023-06-11T11:50:34.811Z,49.00
2023-06-11T11:53:05.399Z,49.80
2023-06-11T11:55:47.705Z,50.20
2023-06-11T11:58:25.947Z,50.10
2023-06-11T12:01:01.111Z,49.20
2023-06-11T12:03:29.563Z,47.70
2023-06-11T12:06:02.345Z,48.40
2023-06-11T12:08:31.607Z,48.00
2023-06-11T12:11:00.146Z,47.20
2023-06-11T12:13:29.910Z,48.60
2023-06-11T12:16:02.925Z,48.10
2023-06-11T12:18:32.389Z,46.70
2023-06-11T12:21:02.414Z,45.40
2023-06-11T12:23:30.820Z,44.30
2023-06-11T12:26:01.094Z,46.30
2023-06-11T12:28:30.440Z,44.20
2023-06-11T12:31:03.096Z,46.00
2023-06-11T12:33:31.730Z,44.50
2023-06-11T12:35:59.724Z,44.70
2023-06-11T12:38:27.903Z,44.80
2023-06-11T12:40:56.093Z,44.80
2023-06-11T12:43:24.121Z,44.50
2023-06-11T12:45:53.541Z,44.50
2023-06-11T12:48:21.621Z,43.10
2023-06-11T12:50:52.668Z,44.70
2023-06-11T12:53:24.596Z,43.00
2023-06-11T12:55:52.992Z,43.70
2023-06-11T12:58:23.750Z,42.70
2023-06-11T13:00:55.238Z,44.30
2023-06-11T13:03:23.273Z,42.70
2023-06-11T13:05:56.413Z,42.80
2023-06-11T13:08:26.558Z,44.10
2023-06-11T13:10:54.622Z,44.40
2023-06-11T13:13:25.764Z,44.90
2023-06-11T13:15:57.002Z,43.30
2023-06-11T13:18:24.998Z,43.20
2023-06-11T13:20:55.089Z,43.80
2023-06-11T13:23:27.450Z,44.00
2023-06-11T13:25:55.886Z,44.00
2023-06-11T13:28:31.825Z,44.60
2023-06-11T13:31:01.291Z,44.20
2023-06-11T13:33:29.210Z,43.40
2023-06-11T13:35:58.969Z,43.10
2023-06-11T13:38:27.320Z,43.00
2023-06-11T13:40:55.780Z,41.10
2023-06-11T13:43:25.918Z,41.80
2023-06-11T13:45:54.963Z,44.00
2023-06-11T13:48:24.270Z,44.40
2023-06-11T13:50:52.513Z,43.30
2023-06-11T13:53:25.537Z,42.60
2023-06-11T13:55:53.912Z,42.20
2023-06-11T13:58:23.368Z,41.30
2023-06-11T14:00:54.708Z,41.20
2023-06-11T14:03:24.527Z,40.80
2023-06-11T14:05:52.537Z,41.30
2023-06-11T14:08:20.726Z,41.10
2023-06-11T14:10:51.766Z,39.70
2023-06-11T14:13:19.766Z,40.80
2023-06-11T14:15:47.876Z,41.20
2023-06-11T14:18:16.034Z,40.50
2023-06-11T14:20:45.375Z,38.90
2023-06-11T14:23:13.347Z,40.00
2023-06-11T14:25:41.502Z,41.70
2023-06-11T14:28:09.606Z,41.90
2023-06-11T14:30:37.629Z,40.70
2023-06-11T14:33:07.522Z,40.10
2023-06-11T14:35:35.679Z,40.90
2023-06-11T14:38:04.977Z,39.60
2023-06-11T14:40:34.979Z,39.10
2023-06-11T14:43:05.937Z,39.60
2023-06-11T14:45:34.050Z,41.20
2023-06-11T14:48:03.909Z,41.60
2023-06-11T14:50:33.727Z,40.50
2023-06-11T14:53:01.991Z,39.00
2023-06-11T14:55:31.381Z,39.30
2023-06-11T14:57:59.395Z,38.90
2023-06-11T15:00:27.370Z,37.90
2023-06-11T15:02:55.917Z,39.40
2023-06-11T15:05:31.185Z,39.90
2023-06-11T15:07:59.130Z,38.30
2023-06-11T15:10:28.486Z,39.40
2023-06-11T15:12:58.392Z,37.60
2023-06-11T15:15:26.811Z,38.90
2023-06-11T15:17:54.778Z,38.50
2023-06-11T15:20:24.776Z,39.70
2023-06-11T15:22:53.141Z,38.80
2023-06-11T15:25:21.123Z,39.10
2023-06-11T15:27:51.933Z,39.10
2023-06-11T15:30:21.498Z,38.20
2023-06-11T15:32:49.472Z,38.90
2023-06-11T15:35:17.814Z,37.70
2023-06-11T15:37:45.817Z,38.10
2023-06-11T15:40:14.623Z,37.70
2023-06-11T15:42:43.564Z,37.30
2023-06-11T15:45:13.977Z,37.80
2023-06-11T15:47:44.321Z,37.00
2023-06-11T15:50:13.202Z,37.40
2023-06-11T15:52:45.936Z,37.30
2023-06-11T15:55:14.416Z,35.80
2023-06-11T15:57:42.802Z,34.90
2023-06-11T16:00:12.296Z,35.20
2023-06-11T16:02:40.898Z,35.60
2023-06-11T16:05:11.000Z,36.30
2023-06-11T16:07:41.374Z,35.30
2023-06-11T16:10:12.341Z,36.00
2023-06-11T16:12:44.035Z,34.60
2023-06-11T16:15:14.870Z,35.00
2023-06-11T16:17:44.811Z,36.10
2023-06-11T16:20:15.994Z,36.00
2023-06-11T16:22:46.602Z,34.30
2023-06-11T16:25:15.663Z,33.80
2023-06-11T16:27:44.592Z,33.70
2023-06-11T16:30:14.685Z,33.90
2023-06-11T16:32:43.240Z,34.50
2023-06-11T16:35:12.700Z,35.90
2023-06-11T16:38:08.005Z,35.00
2023-06-11T16:40:36.100Z,34.80
2023-06-11T16:43:04.190Z,34.40
2023-06-11T16:45:32.247Z,33.80
2023-06-11T16:48:00.436Z,33.70
2023-06-11T16:50:28.514Z,33.70
2023-06-11T16:52:57.833Z,33.10
2023-06-11T16:55:27.493Z,33.40
2023-06-11T16:57:58.344Z,34.70
2023-06-11T17:00:26.444Z,33.00
2023-06-11T17:02:56.343Z,34.70
2023-06-11T17:05:26.427Z,34.20
2023-06-11T17:07:58.941Z,33.60
2023-06-11T17:10:30.897Z,32.30
2023-06-11T17:12:58.910Z,31.90
2023-06-11T17:15:26.805Z,30.80
2023-06-11T17:17:59.320Z,32.30
2023-06-11T17:20:27.927Z,30.50
2023-06-11T17:23:01.863Z,31.50
2023-06-11T17:25:32.942Z,30.80
2023-06-11T17:28:01.147Z,31.60
2023-06-11T17:30:29.198Z,30.30
2023-06-11T17:33:00.748Z,30.70
2023-06-11T17:35:31.844Z,31.80
2023-06-11T17:38:01.588Z,32.00
2023-06-11T17:40:31.514Z,30.80
2023-06-11T17:42:59.984Z,31.50
2023-06-11T17:45:29.591Z,32.50
2023-06-11T17:47:58.377Z,33.30
2023-06-11T17:50:26.856Z,32.80
2023-06-11T17:52:56.328Z,31.40
2023-06-11T17:55:27.140Z,31.60
2023-06-11T17:57:56.540Z,32.80
2023-06-11T18:00:24.472Z,35.00
2023-06-11T18:02:56.272Z,35.30
2023-06-11T18:05:25.662Z,35.50
2023-06-11T18:07:53.890Z,36.30
2023-06-11T18:10:22.252Z,37.90
2023-06-11T18:12:50.285Z,36.70
2023-06-11T18:15:31.327Z,36.30
2023-06-11T18:18:01.855Z,36.80
2023-06-11T18:20:30.261Z,36.50
2023-06-11T18:22:58.706Z,37.40
2023-06-11T18:25:32.026Z,37.10
2023-06-11T18:28:01.386Z,37.40
2023-06-11T18:30:30.939Z,37.10
2023-06-11T18:32:58.984Z,37.50
2023-06-11T18:35:28.489Z,37.30
2023-06-11T18:37:56.650Z,38.30
2023-06-11T18:40:24.775Z,38.10
2023-06-11T18:42:52.956Z,38.90
2023-06-11T18:45:21.008Z,39.00
2023-06-11T18:47:50.647Z,39.90
2023-06-11T18:50:18.752Z,39.20
2023-06-11T18:52:46.817Z,40.00
2023-06-11T18:55:14.846Z,40.20
2023-06-11T18:57:43.023Z,40.60
2023-06-11T19:00:12.565Z,40.80
2023-06-11T19:02:41.076Z,41.40
2023-06-11T19:05:11.614Z,41.30
2023-06-11T19:07:40.820Z,41.40
2023-06-11T19:10:12.361Z,40.20
2023-06-11T19:12:40.982Z,40.20
2023-06-11T19:15:10.113Z,41.00
2023-06-11T19:17:38.174Z,41.10
2023-06-11T19:20:08.988Z,41.70
2023-06-11T19:22:38.929Z,41.90
2023-06-11T19:25:08.008Z,41.30
2023-06-11T19:27:36.712Z,41.70
2023-06-11T19:30:05.406Z,42.10
2023-06-11T19:32:33.447Z,41.40
2023-06-11T19:35:01.506Z,42.00
2023-06-11T19:37:32.143Z,41.50
2023-06-11T19:40:01.562Z,41.60
2023-06-11T19:42:29.536Z,41.20
2023-06-11T19:44:57.657Z,41.80
2023-06-11T19:47:25.699Z,42.40
2023-06-11T19:49:53.694Z,42.10
2023-06-11T19:52:24.049Z,41.20
2023-06-11T19:54:52.610Z,41.60
2023-06-11T19:57:22.519Z,41.80
2023-06-11T19:59:51.260Z,41.70
2023-06-11T20:02:20.614Z,42.00
2023-06-11T20:04:48.694Z,42.20
2023-06-11T20:07:16.945Z,40.80
2023-06-11T20:09:46.431Z,41.30
2023-06-11T20:12:14.912Z,41.10
2023-06-11T20:14:47.468Z,40.90
2023-06-11T20:17:17.585Z,41.00
2023-06-11T20:19:51.658Z,41.20
2023-06-11T20:22:19.631Z,41.00
2023-06-11T20:24:49.538Z,40.70
2023-06-11T20:27:21.987Z,41.30
2023-06-11T20:29:51.383Z,41.30
2023-06-11T20:32:22.848Z,41.20
2023-06-11T20:34:50.937Z,41.70
2023-06-11T20:37:21.236Z,41.10
2023-06-11T20:39:52.335Z,41.00
2023-06-11T20:42:24.546Z,41.50
2023-06-11T20:44:56.003Z,41.40
2023-06-11T20:47:29.530Z,41.40
2023-06-11T20:49:57.701Z,41.80
2023-06-11T20:52:27.339Z,41.20
2023-06-11T20:55:12.909Z,41.70
2023-06-11T20:57:57.497Z,41.30
2023-06-11T21:00:29.323Z,41.70
2023-06-11T21:03:02.606Z,41.70
2023-06-11T21:05:40.206Z,42.00
2023-06-11T21:08:10.862Z,42.00
2023-06-11T21:10:39.869Z,42.60
2023-06-11T21:13:13.838Z,42.50
2023-06-11T21:15:44.046Z,42.70
2023-06-11T21:18:12.572Z,43.20
2023-06-11T21:20:41.226Z,43.50
2023-06-11T21:23:09.183Z,43.10
2023-06-11T21:25:38.854Z,43.30
2023-06-11T21:28:10.279Z,43.40
2023-06-11T21:30:46.237Z,43.30
2023-06-11T21:33:21.776Z,43.60
2023-06-11T21:35:51.417Z,44.00
2023-06-11T21:38:19.566Z,44.10
2023-06-11T21:40:47.590Z,44.50
2023-06-11T21:43:29.597Z,44.90
2023-06-11T21:46:15.458Z,45.10
2023-06-11T21:49:00.312Z,45.10
2023-06-11T21:51:30.555Z,45.50
2023-06-11T21:54:10.848Z,46.00
2023-06-11T21:56:44.628Z,45.80
2023-06-11T21:59:12.584Z,46.00
2023-06-11T22:01:42.274Z,46.50
2023-06-11T22:04:10.321Z,46.90
2023-06-11T22:06:42.715Z,47.30
2023-06-11T22:09:16.770Z,47.20
2023-06-11T22:11:48.744Z,47.30
2023-06-11T22:14:30.101Z,47.30
2023-06-11T22:17:05.380Z,47.60
2023-06-11T22:19:38.052Z,48.10
2023-06-11T22:25:03.160Z,48.70
2023-06-11T22:27:33.115Z,49.10
2023-06-11T22:30:01.245Z,49.30
2023-06-11T22:32:30.754Z,49.40
2023-06-11T22:34:58.852Z,49.70
2023-06-11T22:37:26.930Z,50.10
2023-06-11T22:39:55.296Z,50.50
2023-06-11T22:42:23.812Z,50.40
2023-06-11T22:44:51.828Z,50.70
2023-06-11T22:47:34.377Z,50.90
2023-06-11T22:50:02.727Z,51.20
2023-06-11T22:52:39.353Z,51.30
2023-06-11T22:55:08.785Z,51.90
2023-06-11T22:57:38.543Z,51.70
2023-06-11T23:00:10.990Z,51.80
2023-06-11T23:02:40.699Z,52.00
2023-06-11T23:05:09.306Z,52.30
2023-06-11T23:07:38.368Z,52.60
2023-06-11T23:10:07.104Z,52.50
2023-06-11T23:12:35.065Z,53.00
2023-06-11T23:15:03.293Z,53.20
2023-06-11T23:17:32.676Z,53.30
2023-06-11T23:20:12.271Z,53.40
2023-06-11T23:22:40.693Z,53.60
2023-06-11T23:25:14.026Z,53.70
2023-06-11T23:27:44.370Z,53.70
2023-06-11T23:30:13.599Z,53.80
2023-06-11T23:32:42.577Z,54.10
2023-06-11T23:35:12.875Z,54.00
2023-06-11T23:37:42.273Z,53.80
2023-06-11T23:40:14.469Z,54.00
2023-06-11T23:42:44.828Z,54.30
2023-06-11T23:45:13.582Z,54.40
2023-06-11T23:47:42.538Z,54.50
2023-06-11T23:50:12.515Z,55.50
2023-06-11T23:52:40.973Z,54.90
2023-06-11T23:55:09.557Z,54.90
2023-06-11T23:57:40.029Z,54.90
